Time;durP1;ratioP1;P1;durP2;ratioP2;P2;SDS_P1;SDS_P2;PMS_P1;PMS_P2;Temp;Humidity;BMP_temperature;BMP_pressure;BME280_temperature;BME280_humidity;BME280_pressure;Samples;Min_cycle;Max_cycle;Signal;HPM_P1;HPM_P2
2022/08/19 00:01:41;;;;;;;14.10;12.57;;;;;;;-145.18;100.00;46660.41;5012763;28;20037;-76
2022/08/19 00:04:11;;;;;;;10.47;9.47;;;;;;;-145.18;100.00;46660.41;5012896;28;20053;-76
2022/08/19 00:06:39;;;;;;;7.80;7.00;;;;;;;-145.18;100.00;46660.41;5012249;28;20042;-74
2022/08/19 00:09:06;;;;;;;8.77;7.23;;;;;;;-145.18;100.00;46660.41;5012391;28;20403;-74
2022/08/19 00:11:33;;;;;;;11.93;10.50;;;;;;;-145.18;100.00;46660.41;5012428;28;20029;-74
2022/08/19 00:13:58;;;;;;;13.90;11.80;;;;;;;-145.18;100.00;46660.41;5012748;28;20376;-74
2022/08/19 00:16:25;;;;;;;15.37;13.30;;;;;;;-145.18;100.00;46660.41;5012526;28;20037;-74
2022/08/19 00:18:51;;;;;;;18.20;13.57;;;;;;;-145.18;100.00;46660.41;5012417;28;20034;-74
2022/08/19 00:21:16;;;;;;;14.77;13.27;;;;;;;-145.18;100.00;46660.41;5012124;28;20044;-74
2022/08/19 00:23:42;;;;;;;14.43;12.63;;;;;;;-145.18;100.00;46660.41;5012591;28;20394;-74
2022/08/19 00:26:09;;;;;;;15.10;13.50;;;;;;;-145.18;100.00;46660.41;5012329;28;20408;-73
2022/08/19 00:28:35;;;;;;;13.27;11.93;;;;;;;-145.18;100.00;46660.41;5012180;28;20546;-74
2022/08/19 00:31:02;;;;;;;14.50;12.43;;;;;;;-145.18;100.00;46660.41;5012055;28;20445;-74
2022/08/19 00:33:32;;;;;;;17.90;13.83;;;;;;;-145.18;100.00;46660.41;5012132;28;20031;-74
2022/08/19 00:35:58;;;;;;;16.83;15.03;;;;;;;-145.18;100.00;46660.41;5011480;28;20470;-74
2022/08/19 00:38:24;;;;;;;13.87;12.13;;;;;;;-145.18;100.00;46660.41;5011928;28;20037;-76
2022/08/19 00:40:50;;;;;;;95.90;12.23;;;;;;;-145.18;100.00;46660.41;5011838;28;20034;-76
2022/08/19 00:43:19;;;;;;;13.80;12.00;;;;;;;-145.18;100.00;46660.41;5011796;28;20409;-76
2022/08/19 00:45:45;;;;;;;90.80;13.97;;;;;;;-145.18;100.00;46660.41;5012215;28;20030;-76
2022/08/19 00:48:11;;;;;;;364.77;19.33;;;;;;;-145.18;100.00;46660.41;5011458;28;20076;-76
2022/08/19 00:50:40;;;;;;;192.17;13.40;;;;;;;-145.18;100.00;46660.41;5012458;28;20030;-76
2022/08/19 00:53:06;;;;;;;76.23;10.50;;;;;;;-145.18;100.00;46660.41;5015915;28;20038;-76
2022/08/19 00:55:33;;;;;;;17.03;9.23;;;;;;;-145.18;100.00;46660.41;5031906;28;20034;-75
2022/08/19 00:58:03;;;;;;;12.33;8.77;;;;;;;-145.18;100.00;46660.41;5031515;28;20517;-76
2022/08/19 01:00:29;;;;;;;9.93;8.93;;;;;;;-145.18;100.00;46660.41;5031640;28;20033;-76
2022/08/19 01:02:55;;;;;;;12.23;8.67;;;;;;;-145.18;100.00;46660.41;5030656;28;20033;-75
2022/08/19 01:05:24;;;;;;;10.57;7.17;;;;;;;-145.18;100.00;46660.41;5031276;28;20128;-77
2022/08/19 01:07:50;;;;;;;9.13;7.40;;;;;;;-145.18;100.00;46660.41;5030744;28;20021;-77
2022/08/19 01:10:22;;;;;;;7.87;6.93;;;;;;;-145.18;100.00;46660.41;5031694;28;20095;-77
2022/08/19 01:12:48;;;;;;;10.63;7.13;;;;;;;-145.18;100.00;46660.41;5031314;28;20023;-74
2022/08/19 01:15:18;;;;;;;6.27;5.67;;;;;;;-145.18;100.00;46660.41;5031569;28;20103;-74
2022/08/19 01:17:44;;;;;;;4.17;3.77;;;;;;;-145.18;100.00;46660.41;5013341;28;20033;-74
2022/08/19 01:20:16;;;;;;;6.70;5.13;;;;;;;-145.18;100.00;46660.41;5013740;28;20096;-74
2022/08/19 01:23:02;;;;;;;10.80;8.10;;;;;;;-145.18;100.00;46660.41;5030880;28;20390;-74
2022/08/19 01:25:44;;;;;;;16.98;7.95;;;;;;;-145.18;100.00;46660.41;5031210;28;20037;-74
2022/08/19 01:28:17;;;;;;;6.07;5.43;;;;;;;-145.18;100.00;46660.41;5030686;28;20113;-74
2022/08/19 01:30:43;;;;;;;5.37;4.40;;;;;;;-145.18;100.00;46660.41;5031164;28;20496;-73
2022/08/19 01:33:09;;;;;;;7.67;5.77;;;;;;;-145.18;100.00;46660.41;5030512;28;20034;-76
2022/08/19 01:35:35;;;;;;;4.07;3.67;;;;;;;-145.18;100.00;46660.41;5031234;28;20041;-76
2022/08/19 01:38:08;;;;;;;9.43;7.20;;;;;;;-145.18;100.00;46660.41;5030626;28;20095;-76
2022/08/19 01:40:37;;;;;;;209.90;11.57;;;;;;;-145.18;100.00;46660.41;5031253;28;20040;-76
2022/08/19 01:43:03;;;;;;;160.10;9.07;;;;;;;-145.18;100.00;46660.41;5030110;28;20029;-76
2022/08/19 01:45:31;;;;;;;281.67;12.37;;;;;;;-145.18;100.00;46660.41;5030983;28;20030;-76
2022/08/19 01:47:58;;;;;;;99.70;8.50;;;;;;;-145.18;100.00;46660.41;5034299;28;20030;-76
2022/08/19 01:50:23;;;;;;;79.60;9.13;;;;;;;-145.18;100.00;46660.41;5034798;28;20398;-76
2022/08/19 01:52:49;;;;;;;50.73;9.97;;;;;;;-145.18;100.00;46660.41;5034103;28;20042;-75
2022/08/19 01:55:17;;;;;;;128.30;14.53;;;;;;;-145.18;100.00;46660.41;5034602;28;20045;-76
2022/08/19 01:57:48;;;;;;;122.07;14.83;;;;;;;-145.18;100.00;46660.41;5034118;28;20112;-76
2022/08/19 02:00:17;;;;;;;101.27;12.27;;;;;;;-145.18;100.00;46660.41;5034467;28;20065;-76
2022/08/19 02:03:00;;;;;;;95.50;14.27;;;;;;;-145.18;100.00;46660.41;4907617;22;20424;-74
2022/08/19 02:05:29;;;;;;;18.97;13.77;;;;;;;-145.18;100.00;46658.44;5001923;28;20038;-74
2022/08/19 02:07:55;;;;;;;17.60;12.20;;;;;;;-145.18;100.00;46658.44;5007626;28;20069;-74
2022/08/19 02:10:21;;;;;;;16.27;12.00;;;;;;;-145.18;100.00;46658.44;5014842;28;20062;-74
2022/08/19 02:12:49;;;;;;;14.83;11.30;;;;;;;-145.18;100.00;46660.41;5014162;28;20475;-74
2022/08/19 02:15:14;;;;;;;39.77;12.47;;;;;;;-145.18;100.00;46660.41;5014140;28;20493;-74
2022/08/19 02:17:41;;;;;;;14.60;10.70;;;;;;;-145.18;100.00;46660.41;5014513;28;20021;-74
2022/08/19 02:20:08;;;;;;;16.47;10.80;;;;;;;-145.18;100.00;46660.41;5014497;28;20061;-74
2022/08/19 02:22:33;;;;;;;17.63;12.87;;;;;;;-145.18;100.00;46656.50;4986705;28;20030;-74
2022/08/19 02:24:59;;;;;;;16.80;13.40;;;;;;;-145.18;100.00;46658.44;4994863;28;20380;-75
2022/08/19 02:27:25;;;;;;;18.30;13.47;;;;;;;-145.18;100.00;46660.41;4994483;28;20435;-74
2022/08/19 02:29:52;;;;;;;17.27;13.87;;;;;;;-145.18;100.00;46658.44;4995166;28;20165;-74
2022/08/19 02:32:19;;;;;;;27.03;17.03;;;;;;;-145.18;100.00;46660.41;4993924;28;20038;-74
2022/08/19 02:34:45;;;;;;;22.13;17.27;;;;;;;-145.18;100.00;46660.41;4994643;28;20042;-74
2022/08/19 02:38:25;;;;;;;31.67;18.83;;;;;;;-145.18;100.00;46660.41;4994047;28;20030;-74
2022/08/19 02:39:56;;;;;;;29.77;20.65;;;;;;;-145.18;100.00;46660.41;4994306;28;20517;-74
2022/08/19 02:42:22;;;;;;;25.97;19.63;;;;;;;-145.18;100.00;46660.41;4994146;28;20058;-74
2022/08/19 02:44:48;;;;;;;31.43;21.53;;;;;;;-145.18;100.00;46660.41;4994096;28;20037;-74
2022/08/19 02:47:14;;;;;;;30.67;22.30;;;;;;;-145.18;100.00;46660.41;4994182;28;20428;-74
2022/08/19 02:49:40;;;;;;;30.37;22.80;;;;;;;-145.18;100.00;46660.41;4994657;28;20494;-74
2022/08/19 02:52:06;;;;;;;31.33;20.60;;;;;;;-145.18;100.00;46660.41;4993900;28;20054;-74
2022/08/19 02:54:31;;;;;;;31.10;19.73;;;;;;;-145.18;100.00;46660.41;4994033;28;20073;-74
2022/08/19 02:56:56;;;;;;;28.67;19.70;;;;;;;-145.18;100.00;46660.41;4993165;28;20072;-74
2022/08/19 02:59:22;;;;;;;28.10;18.73;;;;;;;-145.18;100.00;46660.41;4993453;28;20030;-73
2022/08/19 03:01:47;;;;;;;36.57;24.73;;;;;;;-145.18;100.00;46660.41;5000997;28;20038;-74
2022/08/19 03:04:14;;;;;;;41.53;24.57;;;;;;;-145.18;100.00;46660.41;5012858;28;20491;-75
2022/08/19 03:06:43;;;;;;;29.53;23.27;;;;;;;-145.18;100.00;46660.41;5013516;28;20504;-74
2022/08/19 03:09:09;;;;;;;36.00;25.17;;;;;;;-145.18;100.00;46660.41;5013046;28;20546;-74
2022/08/19 03:11:35;;;;;;;33.63;22.13;;;;;;;-145.18;100.00;46660.41;5013664;28;20133;-74
2022/08/19 03:14:02;;;;;;;24.77;19.30;;;;;;;-145.18;100.00;46660.41;5012778;28;20109;-74
2022/08/19 03:16:30;;;;;;;21.70;16.23;;;;;;;-145.18;100.00;46660.41;5013574;28;20034;-74
2022/08/19 03:18:59;;;;;;;18.90;14.23;;;;;;;-145.18;100.00;46660.41;5012356;28;20032;-74
2022/08/19 03:21:26;;;;;;;32.90;23.97;;;;;;;-145.18;100.00;46660.41;5013577;28;20394;-74
2022/08/19 03:23:57;;;;;;;32.03;23.37;;;;;;;-145.18;100.00;46660.41;5012679;28;20034;-74
2022/08/19 03:26:22;;;;;;;42.47;25.03;;;;;;;-145.18;100.00;46660.41;5013013;28;20033;-73
2022/08/19 03:28:49;;;;;;;31.90;25.77;;;;;;;-145.18;100.00;46660.41;5012407;28;20474;-73
2022/08/19 03:31:18;;;;;;;32.33;27.80;;;;;;;-145.18;100.00;46660.41;5012700;28;20041;-73
2022/08/19 03:33:44;;;;;;;39.97;28.27;;;;;;;-145.18;100.00;46660.41;5012655;28;20041;-73
2022/08/19 03:36:15;;;;;;;37.33;27.97;;;;;;;-145.18;100.00;46660.41;5012737;28;20532;-74
2022/08/19 03:38:43;;;;;;;36.33;22.37;;;;;;;-145.18;100.00;46660.41;5012544;28;20494;-74
2022/08/19 03:41:12;;;;;;;17.70;15.30;;;;;;;-145.18;100.00;46660.41;5012469;28;20034;-75
2022/08/19 03:43:39;;;;;;;14.90;12.90;;;;;;;-145.18;100.00;46660.41;5012532;28;20030;-75
2022/08/19 03:46:08;;;;;;;22.57;17.20;;;;;;;-145.18;100.00;46660.41;5012802;28;20383;-74
2022/08/19 03:48:34;;;;;;;38.63;15.37;;;;;;;-145.18;100.00;46660.41;5012324;28;20030;-74
2022/08/19 03:51:00;;;;;;;30.80;22.77;;;;;;;-145.18;100.00;46660.41;5012332;28;20169;-74
2022/08/19 03:53:27;;;;;;;43.10;20.53;;;;;;;-145.18;100.00;46660.41;5011916;28;21968;-74
2022/08/19 03:55:53;;;;;;;25.27;18.57;;;;;;;-145.18;100.00;46660.41;5012578;28;20025;-74
2022/08/19 03:58:19;;;;;;;32.10;24.37;;;;;;;-145.18;100.00;46660.41;5012110;28;20141;-74
2022/08/19 04:00:44;;;;;;;33.50;23.80;;;;;;;-145.18;100.00;46660.41;5012306;28;20478;-74
2022/08/19 04:03:10;;;;;;;39.10;28.37;;;;;;;-145.18;100.00;46660.41;5011277;28;20053;-74
2022/08/19 04:05:37;;;;;;;44.27;29.23;;;;;;;-145.18;100.00;46660.41;5012066;28;20390;-74
2022/08/19 04:08:03;;;;;;;46.57;30.60;;;;;;;-145.18;100.00;46660.41;5011592;28;20052;-75
2022/08/19 04:10:28;;;;;;;49.77;30.63;;;;;;;-145.18;100.00;46660.41;5012091;28;20398;-74
2022/08/19 04:12:54;;;;;;;52.77;33.03;;;;;;;-145.18;100.00;46660.41;4994209;28;20042;-74
2022/08/19 04:15:20;;;;;;;50.63;31.77;;;;;;;-145.18;100.00;46660.41;5011528;28;20038;-74
2022/08/19 04:17:46;;;;;;;51.17;34.10;;;;;;;-145.18;100.00;46660.41;5011470;28;20077;-74
2022/08/19 04:20:11;;;;;;;58.10;34.43;;;;;;;-145.18;100.00;46660.41;5011675;28;20058;-74
2022/08/19 04:22:37;;;;;;;51.60;32.93;;;;;;;-145.18;100.00;46660.41;4994026;28;20034;-75
2022/08/19 04:25:02;;;;;;;63.30;37.07;;;;;;;-145.18;100.00;46660.41;5011723;28;20088;-74
2022/08/19 04:27:29;;;;;;;68.33;39.63;;;;;;;-145.18;100.00;46660.41;5011331;28;20040;-75
2022/08/19 04:29:54;;;;;;;65.13;40.20;;;;;;;-145.18;100.00;46660.41;4994212;28;20375;-74
2022/08/19 04:32:20;;;;;;;62.50;38.53;;;;;;;-145.18;100.00;46660.41;5011181;28;20041;-75
2022/08/19 04:34:46;;;;;;;66.67;39.63;;;;;;;-145.18;100.00;46660.41;5011699;28;20112;-75
2022/08/19 04:37:12;;;;;;;72.83;41.00;;;;;;;-145.18;100.00;46658.44;5011074;28;20057;-75
2022/08/19 04:42:38;;;;;;;84.40;45.87;;;;;;;-145.18;100.00;46658.44;5012578;28;20617;-75
2022/08/19 04:45:07;;;;;;;99.63;50.77;;;;;;;-145.18;100.00;46658.44;5031156;28;20025;-75
2022/08/19 04:47:32;;;;;;;99.57;49.67;;;;;;;-145.18;100.00;46656.50;5030516;28;20057;-75
2022/08/19 04:49:58;;;;;;;101.50;51.87;;;;;;;-145.18;100.00;46658.44;5030934;28;20083;-75
2022/08/19 04:52:24;;;;;;;104.70;52.40;;;;;;;-145.18;100.00;46656.50;5030392;28;20048;-75
2022/08/19 04:54:49;;;;;;;108.27;53.10;;;;;;;-145.18;100.00;46658.44;5029200;28;20060;-75
2022/08/19 04:57:15;;;;;;;108.17;53.67;;;;;;;-145.18;100.00;46654.53;5029861;28;20060;-76
2022/08/19 04:59:40;;;;;;;108.90;55.30;;;;;;;-145.18;100.00;46660.41;5029179;28;20029;-75
2022/08/19 05:02:08;;;;;;;106.83;53.93;;;;;;;-145.18;100.00;46658.44;5029685;28;20033;-74
2022/08/19 05:04:35;;;;;;;101.70;50.93;;;;;;;-145.18;100.00;46660.41;5029554;28;20083;-75
2022/08/19 05:07:00;;;;;;;107.63;54.13;;;;;;;-145.18;100.00;46654.53;5029193;28;20497;-75
2022/08/19 05:09:26;;;;;;;104.77;53.57;;;;;;;-145.18;100.00;46658.44;5028852;28;20033;-75
2022/08/19 05:11:52;;;;;;;108.27;52.77;;;;;;;-145.18;100.00;46658.44;5029484;28;20164;-75
2022/08/19 05:14:21;;;;;;;99.80;52.57;;;;;;;-145.18;100.00;46654.53;5028854;28;20529;-75
2022/08/19 05:16:47;;;;;;;101.27;52.37;;;;;;;-145.18;100.00;46660.41;5011914;28;20112;-75
2022/08/19 05:24:41;;;;;;;98.23;50.87;;;;;;;-145.18;100.00;46658.44;5025706;28;20095;-75
2022/08/19 05:27:07;;;;;;;96.07;49.57;;;;;;;-145.18;100.00;46654.53;5026250;28;20041;-75
2022/08/19 05:29:34;;;;;;;101.23;49.50;;;;;;;-145.18;100.00;46660.41;5021643;28;20084;-76
2022/08/19 05:32:00;;;;;;;98.10;50.13;;;;;;;-145.18;100.00;46658.44;5019445;28;20037;-76
2022/08/19 05:34:26;;;;;;;102.90;51.67;;;;;;;-145.18;100.00;46658.44;5029890;28;20061;-76
2022/08/19 05:36:57;;;;;;;97.67;51.27;;;;;;;-145.18;100.00;46660.41;5023361;28;20068;-77
2022/08/19 05:39:25;;;;;;;92.70;48.80;;;;;;;-145.18;100.00;46656.50;5015561;28;20026;-76
2022/08/19 05:41:56;;;;;;;95.10;48.50;;;;;;;-145.18;100.00;46658.44;5010834;28;20398;-76
2022/08/19 05:44:23;;;;;;;98.70;50.73;;;;;;;-145.18;100.00;46660.41;5010460;28;20034;-75
2022/08/19 05:46:48;;;;;;;94.17;48.40;;;;;;;-145.18;100.00;46660.41;5010633;28;20053;-75
2022/08/19 05:49:15;;;;;;;101.87;49.57;;;;;;;-145.18;100.00;46656.50;5018145;28;20392;-76
2022/08/19 05:51:41;;;;;;;97.03;49.83;;;;;;;-145.18;100.00;46658.44;5030222;28;20123;-76
2022/08/19 05:54:08;;;;;;;93.03;49.00;;;;;;;-145.18;100.00;46658.44;5029753;28;20495;-77
2022/08/19 05:56:38;;;;;;;93.37;47.27;;;;;;;-145.18;100.00;46658.44;5030500;28;20040;-77
2022/08/19 05:59:08;;;;;;;95.30;48.97;;;;;;;-145.18;100.00;46660.41;5029673;28;20026;-77
2022/08/19 06:01:34;;;;;;;88.07;46.10;;;;;;;-145.18;100.00;46660.41;5030398;28;20099;-77
2022/08/19 06:04:00;;;;;;;88.20;48.57;;;;;;;-145.18;100.00;46660.41;5029307;28;20524;-77
2022/08/19 06:06:25;;;;;;;88.03;47.27;;;;;;;-145.18;100.00;46658.44;5029980;28;20038;-77
2022/08/19 06:08:51;;;;;;;86.93;46.33;;;;;;;-145.18;100.00;46658.44;5029738;28;20073;-77
2022/08/19 06:11:32;;;;;;;82.03;46.90;;;;;;;-145.18;100.00;46660.41;5029967;28;20499;-77
2022/08/19 06:14:02;;;;;;;89.57;46.73;;;;;;;-145.18;100.00;46656.50;5022558;28;20433;-77
2022/08/19 06:16:28;;;;;;;82.47;46.33;;;;;;;-145.18;100.00;46660.41;5028496;28;20033;-77
2022/08/19 06:18:56;;;;;;;86.37;46.83;;;;;;;-145.18;100.00;46660.41;5026335;28;20033;-77
2022/08/19 06:21:24;;;;;;;82.13;45.77;;;;;;;-145.18;100.00;46660.41;5021580;28;20516;-77
2022/08/19 06:23:51;;;;;;;79.73;45.40;;;;;;;-145.18;100.00;46660.41;5025617;28;20052;-77
2022/08/19 06:26:18;;;;;;;84.23;45.73;;;;;;;-145.18;100.00;46658.44;5028318;28;20029;-77
2022/08/19 06:28:46;;;;;;;89.50;45.77;;;;;;;-145.18;100.00;46660.41;5027968;28;20033;-77
2022/08/19 06:31:20;;;;;;;81.20;44.30;;;;;;;-145.18;100.00;46660.41;5028812;28;20028;-77
2022/08/19 06:33:47;;;;;;;80.70;45.67;;;;;;;-145.18;100.00;46660.41;5029322;28;20067;-77
2022/08/19 06:36:31;;;;;;;82.73;45.10;;;;;;;-145.18;100.00;46660.41;5031538;28;20021;-77
2022/08/19 06:38:57;;;;;;;77.87;44.30;;;;;;;-145.18;100.00;46660.41;5026160;28;20049;-77
2022/08/19 06:41:25;;;;;;;73.87;42.50;;;;;;;-145.18;100.00;46660.41;5031374;28;20025;-77
2022/08/19 06:43:50;;;;;;;76.40;42.63;;;;;;;-145.18;100.00;46660.41;5029366;28;20033;-77
2022/08/19 06:46:19;;;;;;;68.97;41.67;;;;;;;-145.18;100.00;46660.41;5031572;28;20437;-77
2022/08/19 06:48:45;;;;;;;75.50;42.97;;;;;;;-145.18;100.00;46660.41;5027470;28;20040;-77
2022/08/19 06:51:15;;;;;;;80.23;42.93;;;;;;;-145.18;100.00;46660.41;5031632;28;20103;-76
2022/08/19 06:53:45;;;;;;;73.57;42.47;;;;;;;-145.18;100.00;46627.19;5029266;28;20478;-75
2022/08/19 06:56:11;;;;;;;74.73;41.93;;;;;;;-145.18;100.00;46660.41;5032413;28;20517;-79
2022/08/19 06:58:36;;;;;;;76.60;42.43;;;;;;;-145.18;100.00;46625.22;5031132;28;20053;-80
2022/08/19 07:01:03;;;;;;;71.50;40.60;;;;;;;-145.18;100.00;46625.22;5029980;28;20040;-77
2022/08/19 07:03:32;;;;;;;79.43;42.27;;;;;;;-145.18;100.00;46625.22;5032453;28;20095;-79
2022/08/19 07:06:03;;;;;;;78.37;42.63;;;;;;;-145.18;100.00;46660.41;5033026;28;20044;-76
2022/08/19 07:08:28;;;;;;;68.57;39.23;;;;;;;-145.18;100.00;46627.19;5032379;28;20048;-78
2022/08/19 07:10:54;;;;;;;62.57;40.27;;;;;;;-145.18;100.00;46660.41;5032759;28;20539;-78
2022/08/19 07:13:21;;;;;;;70.53;40.97;;;;;;;-145.18;100.00;46625.22;5032456;28;20025;-78
2022/08/19 07:15:46;;;;;;;72.73;41.03;;;;;;;-145.18;100.00;46625.22;5015033;28;20029;-79
2022/08/19 07:18:12;;;;;;;72.17;40.27;;;;;;;-145.18;100.00;46625.22;5032429;28;20470;-79
2022/08/19 07:20:38;;;;;;;73.73;40.93;;;;;;;-145.18;100.00;46629.13;5033023;28;20486;-79
2022/08/19 07:23:04;;;;;;;77.37;42.50;;;;;;;-145.18;100.00;46627.19;5032040;28;20029;-77
2022/08/19 07:25:29;;;;;;;75.37;43.17;;;;;;;-145.18;100.00;46625.22;5032721;28;20090;-76
2022/08/19 07:27:55;;;;;;;77.70;43.47;;;;;;;-145.18;100.00;46625.22;5032389;28;20044;-76
2022/08/19 07:30:22;;;;;;;79.53;41.53;;;;;;;-145.18;100.00;46627.19;5032622;28;20033;-79
2022/08/19 07:32:48;;;;;;;68.20;41.57;;;;;;;-145.18;100.00;46625.22;5032375;28;20025;-79
2022/08/19 07:35:13;;;;;;;75.27;42.10;;;;;;;-145.18;100.00;46631.09;5014531;28;20042;-77
2022/08/19 07:37:43;;;;;;;79.27;41.73;;;;;;;-145.18;100.00;46629.13;5032531;28;20033;-78
2022/08/19 07:40:09;;;;;;;77.53;41.83;;;;;;;-145.18;100.00;46629.13;5032111;28;20041;-77
2022/08/19 07:42:36;;;;;;;73.10;42.00;;;;;;;-145.18;100.00;46625.22;5032347;28;20025;-76
2022/08/19 07:45:02;;;;;;;80.60;42.87;;;;;;;-145.18;100.00;46629.13;5031382;28;20041;-77
2022/08/19 07:47:28;;;;;;;76.60;40.17;;;;;;;-145.18;100.00;46629.13;5032529;28;20436;-77
2022/08/19 07:49:53;;;;;;;76.63;40.47;;;;;;;-145.18;100.00;46623.28;5031962;28;20037;-79
2022/08/19 07:52:19;;;;;;;76.67;39.87;;;;;;;-145.18;100.00;46625.22;5031932;28;20033;-79
2022/08/19 07:54:44;;;;;;;74.47;39.67;;;;;;;-145.18;100.00;46625.22;5032077;28;20521;-79
2022/08/19 07:57:09;;;;;;;70.20;39.50;;;;;;;-145.18;100.00;46627.19;5031964;28;20045;-79
2022/08/19 07:59:36;;;;;;;69.37;37.77;;;;;;;-145.18;100.00;46625.22;5014175;28;20120;-79
2022/08/19 08:02:02;;;;;;;74.30;41.33;;;;;;;-145.18;100.00;46629.13;5032103;28;20406;-77
2022/08/19 08:09:59;;;;;;;79.77;41.80;;;;;;;-145.18;100.00;46629.13;5031848;28;20040;-77
2022/08/19 08:12:30;;;;;;;75.10;41.17;;;;;;;-145.18;100.00;46627.19;5032134;28;20394;-80
2022/08/19 08:14:58;;;;;;;85.97;41.67;;;;;;;-145.18;100.00;46627.19;5031505;28;20033;-79
2022/08/19 08:17:26;;;;;;;92.47;44.27;;;;;;;-145.18;100.00;46625.22;5032286;28;20125;-79
2022/08/19 08:19:52;;;;;;;86.13;41.27;;;;;;;-145.18;100.00;46629.13;5031293;28;20029;-79
2022/08/19 08:25:08;;;;;;;75.77;40.03;;;;;;;-145.18;100.00;46629.13;5031487;28;20048;-79
2022/08/19 08:27:39;;;;;;;79.47;42.23;;;;;;;-145.18;100.00;46625.22;5030792;28;20063;-79
2022/08/19 08:30:09;;;;;;;79.13;40.30;;;;;;;-145.18;100.00;46629.13;5031272;28;20439;-79
2022/08/19 08:32:39;;;;;;;87.30;42.70;;;;;;;-145.18;100.00;46627.19;5031874;28;20115;-79
2022/08/19 08:35:06;;;;;;;88.63;40.93;;;;;;;-145.18;100.00;46627.19;5031125;28;20124;-76
2022/08/19 08:37:31;;;;;;;83.73;42.00;;;;;;;-145.18;100.00;46631.09;5031879;28;20033;-79
2022/08/19 08:39:56;;;;;;;89.07;42.07;;;;;;;-145.18;100.00;46627.19;5031361;28;20041;-79
2022/08/19 08:42:36;;;;;;;82.33;40.27;;;;;;;-145.18;100.00;46625.22;5031460;28;20449;-76
2022/08/19 08:45:16;;;;;;;75.07;38.93;;;;;;;-145.18;100.00;46623.28;5031445;28;20029;-76
2022/08/19 08:47:47;;;;;;;75.53;38.30;;;;;;;-145.18;100.00;46633.06;5031878;28;20025;-77
2022/08/19 08:50:32;;;;;;;70.90;36.50;;;;;;;-145.18;100.00;46631.09;5030892;28;20060;-77
2022/08/19 08:52:58;;;;;;;65.80;37.22;;;;;;;-145.18;100.00;46625.22;5031846;28;20046;-77
2022/08/19 08:55:27;;;;;;;70.63;38.07;;;;;;;-145.18;100.00;46631.09;5030149;28;20045;-77
2022/08/19 08:58:03;;;;;;;62.63;35.33;;;;;;;-145.18;100.00;46633.06;5031356;28;20113;-77
2022/08/19 09:00:32;;;;;;;68.28;35.15;;;;;;;-145.18;100.00;46633.06;5031377;28;20083;-77
2022/08/19 09:03:01;;;;;;;62.23;34.90;;;;;;;-145.18;100.00;46633.06;5031377;28;20055;-78
2022/08/19 09:05:42;;;;;;;59.60;34.73;;;;;;;-145.18;100.00;46636.94;5013318;28;20647;-77
2022/08/19 09:08:23;;;;;;;58.17;33.03;;;;;;;-145.18;100.00;46640.88;5031108;28;20032;-77
2022/08/19 09:10:54;;;;;;;59.43;34.33;;;;;;;-145.18;100.00;46635.00;5031434;28;20482;-77
2022/08/19 09:13:31;;;;;;;61.03;34.20;;;;;;;-145.18;100.00;46636.94;5030714;28;20053;-78
2022/08/19 09:16:03;;;;;;;56.83;34.50;;;;;;;-145.18;100.00;46636.94;5031111;28;20467;-78
2022/08/19 09:18:52;;;;;;;56.57;32.83;;;;;;;-145.18;100.00;46642.81;5030655;28;20470;-78
2022/08/19 09:21:18;;;;;;;56.67;32.57;;;;;;;-145.18;100.00;46636.94;5030895;28;20029;-78
2022/08/19 09:23:44;;;;;;;55.03;32.57;;;;;;;-145.18;100.00;46640.88;5030776;28;20033;-78
2022/08/19 09:26:15;;;;;;;51.60;32.13;;;;;;;-145.18;100.00;46640.88;5030884;28;20034;-79
2022/08/19 09:28:43;;;;;;;54.97;32.20;;;;;;;-145.18;100.00;46642.81;5030990;28;20104;-78
2022/08/19 09:31:13;;;;;;;51.37;31.90;;;;;;;-145.18;100.00;46640.88;5030765;28;20033;-78
2022/08/19 09:33:39;;;;;;;60.77;33.53;;;;;;;-145.18;100.00;46638.91;5030952;28;20029;-78
2022/08/19 09:36:08;;;;;;;52.57;31.77;;;;;;;-145.18;100.00;46642.81;5030865;28;20030;-78
2022/08/19 09:38:34;;;;;;;53.80;31.43;;;;;;;-145.18;100.00;46640.88;5030692;28;20026;-79
2022/08/19 09:41:05;;;;;;;51.43;32.70;;;;;;;-145.18;100.00;46640.88;5031184;28;20450;-78
2022/08/19 09:43:32;;;;;;;47.43;31.10;;;;;;;-145.18;100.00;46640.88;5013155;28;20401;-77
2022/08/19 09:45:58;;;;;;;50.20;30.97;;;;;;;-145.18;100.00;46640.88;5031150;28;20316;-77
2022/08/19 09:48:23;;;;;;;50.30;29.80;;;;;;;-145.18;100.00;46640.88;5030474;28;20060;-78
2022/08/19 09:50:49;;;;;;;52.53;31.20;;;;;;;-145.18;100.00;46638.91;5031066;28;20026;-77
2022/08/19 09:53:15;;;;;;;55.23;30.63;;;;;;;-145.18;100.00;46640.88;5012880;28;20389;-77
2022/08/19 09:55:44;;;;;;;50.60;29.20;;;;;;;-145.18;100.00;46638.91;5031310;28;20049;-77
2022/08/19 09:58:10;;;;;;;51.20;29.70;;;;;;;-145.18;100.00;46638.91;5031108;28;20378;-77
2022/08/19 10:00:38;;;;;;;54.87;30.53;;;;;;;-145.18;100.00;46642.81;5030995;28;20038;-78
2022/08/19 10:03:03;;;;;;;45.33;28.00;;;;;;;-145.18;100.00;46644.78;5030472;28;20037;-78
2022/08/19 10:08:12;;;;;;;35.27;21.43;;;;;;;-145.18;100.00;46652.59;5034321;28;20148;-78
2022/08/19 10:10:38;;;;;;;29.93;21.80;;;;;;;-145.18;100.00;46650.63;5017125;28;20446;-78
2022/08/19 10:13:03;;;;;;;29.97;20.13;;;;;;;-145.18;100.00;46656.50;5034776;28;20509;-78
2022/08/19 10:15:29;;;;;;;28.87;20.53;;;;;;;-145.18;100.00;46656.50;5034515;28;20045;-78
2022/08/19 10:17:55;;;;;;;30.37;19.53;;;;;;;-145.18;100.00;46664.31;5034785;28;20091;-79
2022/08/19 10:20:21;;;;;;;26.17;19.13;;;;;;;-145.18;100.00;46666.25;5033583;28;20470;-79
2022/08/19 10:22:47;;;;;;;30.87;19.37;;;;;;;-145.18;100.00;46672.13;5035094;28;20117;-81
2022/08/19 10:25:14;;;;;;;31.27;21.83;;;;;;;-145.18;100.00;46670.16;5034296;28;20506;-78
2022/08/19 10:27:39;;;;;;;27.47;20.63;;;;;;;-145.18;100.00;46674.06;5034570;28;20038;-78
2022/08/19 10:30:06;;;;;;;30.47;20.90;;;;;;;-145.18;100.00;46677.97;5034368;28;20109;-79
2022/08/19 10:32:31;;;;;;;29.17;19.30;;;;;;;-145.18;100.00;46685.78;5034884;28;20397;-78
2022/08/19 10:34:57;;;;;;;31.48;20.20;;;;;;;-145.18;100.00;46679.94;5034385;28;20108;-78
2022/08/19 10:37:22;;;;;;;30.27;19.70;;;;;;;-145.18;100.00;46679.94;5034213;28;20033;-79
2022/08/19 10:39:47;;;;;;;20.80;14.63;;;;;;;-145.18;100.00;46681.88;5034349;28;20374;-79
2022/08/19 10:42:13;;;;;;;21.27;13.37;;;;;;;-145.18;100.00;46683.84;5034699;28;20060;-80
2022/08/19 10:44:39;;;;;;;23.75;14.43;;;;;;;-145.18;100.00;46685.78;5034535;28;20108;-79
2022/08/19 10:47:05;;;;;;;21.35;15.85;;;;;;;-145.18;100.00;46681.88;5034736;28;20057;-79
2022/08/19 10:49:31;;;;;;;23.90;14.68;;;;;;;-145.18;100.00;46676.03;5034281;28;20492;-79
2022/08/19 10:57:45;;;;;;;22.02;13.65;;;;;;;-145.18;100.00;46683.84;4953562;29;20040;-80
2022/08/19 11:00:11;;;;;;;22.67;14.45;;;;;;;-145.18;100.00;46685.78;4952954;29;20086;-79
2022/08/19 11:02:36;;;;;;;21.10;14.13;;;;;;;-145.18;100.00;46679.94;4990721;28;20124;-79
2022/08/19 11:05:03;;;;;;;23.13;16.38;;;;;;;-145.18;100.00;46687.75;5033482;28;20044;-79
2022/08/19 11:07:28;;;;;;;22.30;16.40;;;;;;;-145.18;100.00;46681.88;5016023;28;20065;-79
2022/08/19 11:09:53;;;;;;;21.08;13.90;;;;;;;-145.18;100.00;46683.84;5033600;28;20131;-79
2022/08/19 11:12:19;;;;;;;18.90;14.30;;;;;;;-145.18;100.00;46679.94;5033960;28;20030;-79
2022/08/19 11:14:44;;;;;;;17.60;13.13;;;;;;;-145.18;100.00;46685.78;5033851;28;20033;-79
2022/08/19 11:17:13;;;;;;;16.58;11.93;;;;;;;-145.18;100.00;46683.84;5033807;28;20044;-79
2022/08/19 11:19:39;;;;;;;15.80;10.13;;;;;;;-145.18;100.00;46685.78;5032979;28;20091;-79
2022/08/19 11:22:09;;;;;;;15.15;10.90;;;;;;;-145.18;100.00;46689.69;5033633;28;20025;-79